• Join FlightAware (Why Join?)
  • Login
  • US Flag 
11:25PM EST


 

Airport Tracker/Info


-or-


 

Live Flight TrackerFlight Track Log ✈ N690TW ✈ 08-Mar-2014 ✈ KGJT - KBJC

Flight Track Log - Related Links

Times and Time Zones

All times are in EST time to prevent confusion due to time zone crossing. See the N690TW flight status page for this flight to view local times or setup timezone preferences in your user account.

Time Position Orientation Groundspeed Altitude Reporting Facility
EST Latitude Longitude Course Direction KTS MPH feet Rate Location/Type
07:38PM 39.1333 -108.5667 322° Northwest 161 185 6,200  Level Denver TRACON
07:39PM 39.1667 -108.6000 322° Northwest 177 204 8,000 1,938 Climbing Denver TRACON
07:39PM 39.1753 -108.5583 75° East 169 194 9,300 2,020 Climbing Denver Center
07:41PM 39.1831 -108.4986 80° East 168 193 11,300 2,016 Climbing Denver Center
07:42PM 39.1903 -108.4300 82° East 178 205 13,400 1,984 Climbing Denver Center
07:43PM 39.1950 -108.3703 84° East 178 205 15,400 1,905 Climbing Denver Center
07:44PM 39.1994 -108.3133 84° East 156 180 17,400 1,805 Climbing Denver Center
07:45PM 39.2050 -108.2506 83° East 160 184 19,100 1,645 Climbing Denver Center
07:46PM 39.2097 -108.1919 84° East 162 186 20,800 1,694 Climbing Denver Center
07:47PM 39.2144 -108.1283 85° East 163 188 22,600 1,721 Climbing Denver Center
07:48PM 39.2189 -108.0664 85° East 169 194 24,300 1,536 Climbing Denver Center
07:49PM 39.2231 -108.0064 85° East 174 200 25,800 1,306 Climbing Denver Center
07:50PM 39.2300 -107.9358 83° East 178 205 27,000 585 Climbing Denver Center
07:51PM 39.2333 -107.8619 87° East 216 249 27,000  Level Denver Center
07:52PM 39.2392 -107.7817 85° East 229 264 27,000  Level Denver Center
07:53PM 39.2481 -107.6703 84° East 242 278 27,000  Level Denver Center
07:54PM 39.2542 -107.5742 85° East 242 278 27,000  Level Denver Center
07:55PM 39.2606 -107.4925 84° East 241 277 27,000  Level Denver Center
07:56PM 39.2689 -107.3956 84° East 242 278 27,000  Level Denver Center
07:57PM 39.2739 -107.3136 85° East 242 278 27,000  Level Denver Center
07:58PM 39.2803 -107.2314 84° East 241 277 27,000  Level Denver Center
07:59PM 39.2869 -107.1361 85° East 241 277 27,000  Level Denver Center
08:00PM 39.2931 -107.0531 85° East 241 277 27,000  Level Denver Center
08:02PM 39.3000 -106.9578 85° East 241 277 27,000 -286 Level Denver Center
08:03PM 39.3078 -106.8450 85° East 243 280 26,400 -683 Descending Denver Center
08:04PM 39.3144 -106.7611 84° East 244 281 25,600 -726 Descending Denver Center
08:05PM 39.3206 -106.6794 84° East 240 276 24,900 -774 Descending Denver Center
08:06PM 39.3269 -106.5783 85° East 250 288 24,000 -829 Descending Denver Center
08:07PM 39.3339 -106.4925 84° East 250 288 23,200 -816 Descending Denver Center
08:08PM 39.3397 -106.3906 86° East 252 290 22,300 -590 Descending Denver Center
08:09PM 39.3464 -106.3031 84° East 254 292 22,000 -393 Descending Denver Center
08:10PM 39.3519 -106.2047 86° East 248 285 21,500 -677 Descending Denver Center
08:11PM 39.3569 -106.1194 86° East 254 292 20,600 -927 Descending Denver Center
08:12PM 39.3631 -106.0247 85° East 260 299 19,600 -960 Descending Denver Center
08:13PM 39.3689 -105.9303 85° East 260 299 18,600 -823 Descending Denver Center
08:14PM 39.3744 -105.8350 86° East 262 302 17,900 -942 Descending Denver Center
08:15PM 39.3822 -105.7214 85° East 263 303 16,700 -919 Descending Denver Center
08:16PM 39.3883 -105.6267 85° East 263 303 16,000 -339 Descending Denver Center
08:17PM 39.3931 -105.5375 86° East 259 298 16,000 -246 Level Denver Center
08:18PM 39.4153 -105.4475 72° East 261 300 15,500 -720 Descending Denver Center
08:19PM 39.4592 -105.3747 52° Northeast 257 296 14,500 -1,048 Descending Denver Center
08:20PM 39.5069 -105.2919 53° Northeast 262 302 13,300 -1,171 Descending Denver Center
08:21PM 39.5594 -105.2286 43° Northeast 263 303 12,100 -934 Descending Denver Center
08:22PM 39.6269 -105.1828 28° Northeast 258 297 11,400 -1,161 Descending Denver Center
08:23PM 39.6928 -105.1433 25° Northeast 258 297 9,700 -1,584 Descending Denver Center
08:24PM 39.7603 -105.1122 20° North 258 297 8,100 -1,289 Descending Denver Center
08:25PM 39.8311 -105.0817 18° North 252 290 7,100 -829 Descending Denver Center
08:26PM 39.8778 -105.0725 North 169 194 6,400 -726 Descending Denver Center
08:27PM 39.9003 -105.0989 318° Northwest 111 128 5,600 -800 Descending Denver Center
08:29PM 39.9000 -105.1167 270° West  Level FlightAware Approximate
08:36PM 39.9088 -105.1172 270° West  Level Estimated
08:37PM 39.9088 -105.1172 270° West  Level Estimated